createdAt,value
2018-05-03T00:00:08.538Z,97144.36
2018-05-03T00:00:40.182Z,97145.70
2018-05-03T00:01:11.793Z,97150.83
2018-05-03T00:01:43.383Z,97148.70
2018-05-03T00:02:15.637Z,97144.84
2018-05-03T00:02:47.209Z,97145.71
2018-05-03T00:03:18.793Z,97146.16
2018-05-03T00:03:50.393Z,97143.83
2018-05-03T00:04:22.006Z,97144.64
2018-05-03T00:04:53.598Z,97143.30
2018-05-03T00:05:25.242Z,97145.33
2018-05-03T00:05:56.821Z,97140.29
2018-05-03T00:06:28.405Z,97146.56
2018-05-03T00:07:00.010Z,97146.55
2018-05-03T00:07:31.599Z,97148.63
2018-05-03T00:08:03.187Z,97152.42
2018-05-03T00:08:34.793Z,97151.56
2018-05-03T00:09:06.377Z,97146.41
2018-05-03T00:09:37.998Z,97151.52
2018-05-03T00:10:09.616Z,97154.47
2018-05-03T00:10:41.225Z,97152.35
2018-05-03T00:11:12.820Z,97152.00
2018-05-03T00:11:44.416Z,97154.56
2018-05-03T00:12:16.026Z,97153.27
2018-05-03T00:12:47.618Z,97149.01
2018-05-03T00:13:19.202Z,97149.76
2018-05-03T00:13:50.805Z,97158.61
2018-05-03T00:14:22.381Z,97151.47
2018-05-03T00:14:54.020Z,97150.63
2018-05-03T00:15:25.597Z,97156.16
2018-05-03T00:15:58.233Z,97143.43
2018-05-03T00:16:29.837Z,97153.17
2018-05-03T00:17:01.445Z,97151.94
2018-05-03T00:17:33.060Z,97150.63
2018-05-03T00:18:04.634Z,97151.91
2018-05-03T00:18:36.234Z,97151.56
2018-05-03T00:19:07.837Z,97150.29
2018-05-03T00:19:39.459Z,97152.00
2018-05-03T00:20:11.105Z,97152.84
2018-05-03T00:20:42.699Z,97150.75
2018-05-03T00:21:14.276Z,97155.53
2018-05-03T00:21:45.844Z,97152.95
2018-05-03T00:22:17.438Z,97152.53
2018-05-03T00:22:49.077Z,97155.95
2018-05-03T00:23:20.656Z,97158.50
2018-05-03T00:23:52.234Z,97157.20
2018-05-03T00:24:23.828Z,97157.69
2018-05-03T00:24:55.414Z,97166.70
2018-05-03T00:25:27.101Z,97167.54
2018-05-03T00:25:58.674Z,97167.56
2018-05-03T00:26:30.283Z,97173.95
2018-05-03T00:27:01.856Z,97173.11
2018-05-03T00:27:33.452Z,97174.02
2018-05-03T00:28:05.071Z,97174.02
2018-05-03T00:28:36.668Z,97177.89
2018-05-03T00:29:08.252Z,97176.59
2018-05-03T00:29:39.858Z,97179.14
2018-05-03T00:30:11.504Z,97175.71
2018-05-03T00:30:43.119Z,97171.13
2018-05-03T00:31:14.697Z,97171.94
2018-05-03T00:31:46.306Z,97171.19
2018-05-03T00:32:17.890Z,97176.72
2018-05-03T00:32:49.506Z,97170.31
2018-05-03T00:33:21.090Z,97176.70
2018-05-03T00:33:52.664Z,97169.91
2018-05-03T00:34:24.245Z,97168.64
2018-05-03T00:34:55.844Z,97163.59
2018-05-03T00:35:27.466Z,97173.74
2018-05-03T00:35:59.142Z,97167.73
2018-05-03T00:36:30.751Z,97168.20
2018-05-03T00:37:02.346Z,97168.64
2018-05-03T00:37:33.913Z,97173.61
2018-05-03T00:38:05.514Z,97169.38
2018-05-03T00:38:37.094Z,97164.27
2018-05-03T00:39:08.678Z,97169.44
2018-05-03T00:39:40.312Z,97176.28
2018-05-03T00:40:11.908Z,97174.55
2018-05-03T00:40:43.480Z,97172.03
2018-05-03T00:41:15.054Z,97172.87
2018-05-03T00:41:46.657Z,97169.55
2018-05-03T00:42:18.261Z,97167.42
2018-05-03T00:42:49.841Z,97174.69
2018-05-03T00:43:21.446Z,97166.59
2018-05-03T00:43:53.030Z,97169.64
2018-05-03T00:44:24.659Z,97177.73
2018-05-03T00:44:56.237Z,97179.80
2018-05-03T00:45:27.828Z,97179.38
2018-05-03T00:45:59.434Z,97184.47
2018-05-03T00:46:31.038Z,97178.11
2018-05-03T00:47:02.678Z,97180.22
2018-05-03T00:47:34.266Z,97179.03
2018-05-03T00:48:05.860Z,97175.93
2018-05-03T00:48:37.450Z,97167.12
2018-05-03T00:49:09.053Z,97171.34
2018-05-03T00:49:40.632Z,97175.19
2018-05-03T00:50:12.204Z,97181.16
2018-05-03T00:50:43.785Z,97178.20
2018-05-03T00:51:15.366Z,97179.47
2018-05-03T00:51:47.009Z,97180.75
2018-05-03T00:52:18.597Z,97175.19
2018-05-03T00:52:50.208Z,97175.11
2018-05-03T00:53:21.776Z,97167.08
2018-05-03T00:53:53.352Z,97170.86
2018-05-03T00:54:24.925Z,97174.34
2018-05-03T00:54:56.561Z,97171.66
2018-05-03T00:55:28.139Z,97173.80
2018-05-03T00:55:59.732Z,97178.41
2018-05-03T00:56:31.309Z,97183.97
2018-05-03T00:57:02.918Z,97178.91
2018-05-03T00:57:34.530Z,97185.70
2018-05-03T00:58:06.155Z,97174.25
2018-05-03T00:58:37.744Z,97176.02
2018-05-03T00:59:09.317Z,97180.66
2018-05-03T00:59:40.888Z,97176.89
2018-05-03T01:00:12.470Z,97182.86
2018-05-03T01:00:44.054Z,97178.59
2018-05-03T01:01:15.639Z,97177.45
2018-05-03T01:01:47.242Z,97181.22
2018-05-03T01:02:18.851Z,97175.19
2018-05-03T01:02:50.432Z,97176.88
2018-05-03T01:03:22.010Z,97177.23
2018-05-03T01:03:53.609Z,97176.72
2018-05-03T01:04:25.190Z,97177.20
2018-05-03T01:04:56.810Z,97172.95
2018-05-03T01:05:28.417Z,97174.23
2018-05-03T01:06:00.030Z,97175.97
2018-05-03T01:06:31.604Z,97180.22
2018-05-03T01:07:03.206Z,97178.17
2018-05-03T01:07:34.794Z,97176.45
2018-05-03T01:08:06.361Z,97174.27
2018-05-03T01:08:37.962Z,97178.09
2018-05-03T01:09:09.613Z,97184.47
2018-05-03T01:09:41.254Z,97179.78
2018-05-03T01:10:12.784Z,97183.17
2018-05-03T01:10:44.390Z,97181.87
2018-05-03T01:11:15.996Z,97179.80
2018-05-03T01:11:47.610Z,97183.97
2018-05-03T01:12:19.234Z,97178.41
2018-05-03T01:12:50.817Z,97181.39
2018-05-03T01:13:22.408Z,97185.66
2018-05-03T01:13:54.014Z,97183.17
2018-05-03T01:14:25.648Z,97187.05
2018-05-03T01:14:57.220Z,97187.87
2018-05-03T01:15:28.802Z,97185.77
2018-05-03T01:16:00.368Z,97187.09
2018-05-03T01:16:31.954Z,97185.81
2018-05-03T01:17:03.537Z,97183.19
2018-05-03T01:17:35.121Z,97184.95
2018-05-03T01:18:06.702Z,97183.19
2018-05-03T01:18:38.292Z,97184.95
2018-05-03T01:19:09.903Z,97186.23
2018-05-03T01:19:41.533Z,97185.29
2018-05-03T01:20:13.134Z,97188.28
2018-05-03T01:20:44.723Z,97184.86
2018-05-03T01:21:16.296Z,97191.72
2018-05-03T01:21:47.906Z,97190.07
2018-05-03T01:22:19.534Z,97183.69
2018-05-03T01:22:51.138Z,97181.87
2018-05-03T01:23:22.742Z,97179.33
2018-05-03T01:23:54.329Z,97179.34
2018-05-03T01:24:25.934Z,97181.06
2018-05-03T01:24:57.545Z,97170.73
2018-05-03T01:25:29.149Z,97182.34
2018-05-03T01:26:00.788Z,97183.22
2018-05-03T01:26:32.379Z,97176.02
2018-05-03T01:27:03.952Z,97176.44
2018-05-03T01:27:35.543Z,97170.95
2018-05-03T01:28:07.161Z,97170.00
2018-05-03T01:28:38.760Z,97166.22
2018-05-03T01:29:10.342Z,97161.04
2018-05-03T01:29:41.946Z,97162.31
2018-05-03T01:30:13.557Z,97170.80
2018-05-03T01:30:45.162Z,97158.91
2018-05-03T01:31:16.790Z,97164.44
2018-05-03T01:31:48.380Z,97156.77
2018-05-03T01:32:19.994Z,97161.02
2018-05-03T01:32:51.568Z,97164.78
2018-05-03T01:33:23.151Z,97154.20
2018-05-03T01:33:54.720Z,97149.95
2018-05-03T01:34:26.326Z,97145.64
2018-05-03T01:34:57.907Z,97150.36
2018-05-03T01:35:29.510Z,97148.20
2018-05-03T01:36:01.183Z,97150.38
2018-05-03T01:36:32.779Z,97154.66
2018-05-03T01:37:04.356Z,97143.16
2018-05-03T01:37:35.962Z,97145.71
2018-05-03T01:38:07.574Z,97150.83
2018-05-03T01:38:39.158Z,97150.84
2018-05-03T01:39:10.728Z,97157.65
2018-05-03T01:39:42.329Z,97164.47
2018-05-03T01:40:13.934Z,97158.48
2018-05-03T01:40:45.538Z,97158.91
2018-05-03T01:41:17.166Z,97151.24
2018-05-03T01:41:48.770Z,97149.89
2018-05-03T01:42:20.337Z,97144.36
2018-05-03T01:42:51.904Z,97140.50
2018-05-03T01:43:23.506Z,97142.01
2018-05-03T01:43:55.080Z,97144.13
2018-05-03T01:44:26.668Z,97146.27
2018-05-03T01:44:58.244Z,97143.25
2018-05-03T01:45:29.840Z,97142.41
2018-05-03T01:46:01.425Z,97144.05
2018-05-03T01:46:33.069Z,97145.80
2018-05-03T01:47:04.650Z,97149.48
2018-05-03T01:47:36.230Z,97141.80
2018-05-03T01:48:07.813Z,97145.73
2018-05-03T01:48:39.398Z,97142.77
2018-05-03T01:49:11.006Z,97147.12
2018-05-03T01:49:42.590Z,97146.70
2018-05-03T01:50:14.193Z,97145.84
2018-05-03T01:50:45.792Z,97147.19
2018-05-03T01:51:17.381Z,97137.50
2018-05-03T01:51:49.025Z,97146.37
2018-05-03T01:52:20.596Z,97136.17
2018-05-03T01:52:52.234Z,97141.28
2018-05-03T01:53:23.825Z,97144.25
2018-05-03T01:53:55.427Z,97143.06
2018-05-03T01:54:27.038Z,97140.95
2018-05-03T01:54:58.641Z,97143.09
2018-05-03T01:55:30.220Z,97143.48
2018-05-03T01:56:01.796Z,97145.19
2018-05-03T01:56:33.378Z,97142.17
2018-05-03T01:57:04.966Z,97146.86
2018-05-03T01:57:36.550Z,97144.77
2018-05-03T01:58:08.173Z,97150.19
2018-05-03T01:58:39.757Z,97151.05
2018-05-03T01:59:11.366Z,97150.11
2018-05-03T01:59:42.954Z,97145.00
2018-05-03T02:00:14.534Z,97148.41
2018-05-03T02:00:46.125Z,97154.80
2018-05-03T02:01:17.738Z,97154.02
2018-05-03T02:01:49.351Z,97148.56
2018-05-03T02:02:20.929Z,97157.45
2018-05-03T02:02:52.553Z,97155.27
2018-05-03T02:03:24.119Z,97158.20
2018-05-03T02:03:55.765Z,97155.20
2018-05-03T02:04:27.335Z,97155.20
2018-05-03T02:04:58.918Z,97157.34
2018-05-03T02:05:30.484Z,97161.61
2018-05-03T02:06:02.072Z,97160.33
2018-05-03T02:06:33.742Z,97159.47
2018-05-03T02:07:05.324Z,97158.61
2018-05-03T02:07:36.936Z,97156.41
2018-05-03T02:08:08.514Z,97161.50
2018-05-03T02:08:40.117Z,97155.95
2018-05-03T02:09:11.782Z,97163.59
2018-05-03T02:09:43.357Z,97161.90
2018-05-03T02:10:14.966Z,97164.47
2018-05-03T02:10:46.540Z,97170.84
2018-05-03T02:11:18.145Z,97169.55
2018-05-03T02:11:49.741Z,97176.32
2018-05-03T02:12:21.337Z,97173.72
2018-05-03T02:12:52.945Z,97177.06
2018-05-03T02:13:24.554Z,97168.59
2018-05-03T02:13:56.133Z,97176.62
2018-05-03T02:14:27.765Z,97174.93
2018-05-03T02:14:59.410Z,97179.58
2018-05-03T02:15:31.014Z,97180.42
2018-05-03T02:16:02.598Z,97179.49
2018-05-03T02:16:34.232Z,97179.93
2018-05-03T02:17:05.818Z,97178.14
2018-05-03T02:17:37.402Z,97173.50
2018-05-03T02:18:08.986Z,97172.22
2018-05-03T02:18:40.566Z,97174.73
2018-05-03T02:19:12.143Z,97173.92
2018-05-03T02:19:43.785Z,97175.59
2018-05-03T02:20:15.380Z,97179.05
2018-05-03T02:20:46.970Z,97176.91
2018-05-03T02:21:18.554Z,97167.92
2018-05-03T02:21:50.162Z,97167.06
2018-05-03T02:22:21.766Z,97167.11
2018-05-03T02:22:53.350Z,97169.69
2018-05-03T02:23:24.994Z,97172.27
2018-05-03T02:23:56.592Z,97174.36
2018-05-03T02:24:28.197Z,97170.11
2018-05-03T02:24:59.789Z,97174.84
2018-05-03T02:25:31.366Z,97170.15
2018-05-03T02:26:02.974Z,97167.22
2018-05-03T02:26:34.581Z,97165.95
2018-05-03T02:27:06.185Z,97169.34
2018-05-03T02:27:37.794Z,97163.77
2018-05-03T02:28:09.378Z,97157.35
2018-05-03T02:28:41.025Z,97163.65
2018-05-03T02:29:12.614Z,97162.79
2018-05-03T02:29:44.218Z,97159.45
2018-05-03T02:30:15.825Z,97156.56
2018-05-03T02:30:47.462Z,97156.91
2018-05-03T02:31:19.110Z,97154.03
2018-05-03T02:31:50.709Z,97154.36
2018-05-03T02:32:22.298Z,97151.73
2018-05-03T02:32:53.934Z,97154.28
2018-05-03T02:33:25.509Z,97153.48
2018-05-03T02:33:57.098Z,97152.31
2018-05-03T02:34:28.706Z,97155.14
2018-05-03T02:35:00.325Z,97151.80
2018-05-03T02:35:31.896Z,97153.91
2018-05-03T02:36:03.502Z,97152.66
2018-05-03T02:36:35.082Z,97155.23
2018-05-03T02:37:06.720Z,97153.42
2018-05-03T02:37:38.316Z,97154.70
2018-05-03T02:38:09.927Z,97145.34
2018-05-03T02:38:41.528Z,97147.04
2018-05-03T02:39:13.129Z,97146.16
2018-05-03T02:39:44.712Z,97139.33
2018-05-03T02:40:16.284Z,97144.70
2018-05-03T02:40:47.887Z,97142.84
2018-05-03T02:41:19.489Z,97139.40
2018-05-03T02:41:51.078Z,97141.08
2018-05-03T02:42:22.669Z,97136.25
2018-05-03T02:42:54.318Z,97138.80
2018-05-03T02:43:25.931Z,97134.55
2018-05-03T02:43:57.528Z,97132.36
2018-05-03T02:44:29.139Z,97136.17
2018-05-03T02:45:00.753Z,97128.95
2018-05-03T02:45:32.348Z,97128.06
2018-05-03T02:46:03.930Z,97127.67
2018-05-03T02:46:35.530Z,97131.94
2018-05-03T02:47:07.138Z,97133.64
2018-05-03T02:47:38.792Z,97133.20
2018-05-03T02:48:10.375Z,97131.50
2018-05-03T02:48:42.998Z,97132.78
2018-05-03T02:49:14.606Z,97131.94
2018-05-03T02:49:46.210Z,97132.34
2018-05-03T02:50:17.821Z,97129.38
2018-05-03T02:50:49.402Z,97142.48
2018-05-03T02:51:20.997Z,97139.55
2018-05-03T02:51:52.578Z,97145.94
2018-05-03T02:52:24.162Z,97147.70
2018-05-03T02:52:55.809Z,97152.81
2018-05-03T02:53:27.413Z,97148.88
2018-05-03T02:53:59.018Z,97148.88
2018-05-03T02:54:30.604Z,97151.00
2018-05-03T02:55:02.187Z,97143.75
2018-05-03T02:55:33.789Z,97149.72
2018-05-03T02:56:05.372Z,97151.00
2018-05-03T02:56:36.977Z,97150.58
2018-05-03T02:57:08.548Z,97148.94
2018-05-03T02:57:40.135Z,97149.81
2018-05-03T02:58:17.822Z,97148.55
2018-05-03T02:58:49.445Z,97152.92
2018-05-03T02:59:22.038Z,97149.09
2018-05-03T02:59:53.613Z,97146.95
2018-05-03T03:00:31.017Z,97147.86
2018-05-03T03:01:08.221Z,97150.44
2018-05-03T03:01:45.424Z,97144.07
2018-05-03T03:02:22.643Z,97148.32
2018-05-03T03:03:47.017Z,97149.72
2018-05-03T03:04:24.477Z,97148.07
2018-05-03T03:05:01.852Z,97147.62
2018-05-03T03:05:39.127Z,97142.89
2018-05-03T03:06:10.851Z,97139.56
2018-05-03T03:06:48.455Z,97144.58
2018-05-03T03:07:25.695Z,97143.28
2018-05-03T03:08:03.172Z,97141.68
2018-05-03T03:08:40.399Z,97144.58
2018-05-03T03:09:17.941Z,97143.33
2018-05-03T03:09:55.219Z,97146.38
2018-05-03T03:10:32.711Z,97144.60
2018-05-03T03:11:10.011Z,97139.55
2018-05-03T03:11:47.489Z,97136.56
2018-05-03T03:12:24.839Z,97130.64
2018-05-03T03:13:02.181Z,97137.45
2018-05-03T03:13:39.603Z,97131.89
2018-05-03T03:14:17.023Z,97131.94
2018-05-03T03:14:54.447Z,97133.50
2018-05-03T03:15:31.718Z,97134.78
2018-05-03T03:16:09.171Z,97132.22
2018-05-03T03:16:46.495Z,97136.45
2018-05-03T03:17:23.845Z,97130.75
2018-05-03T03:18:01.342Z,97131.94
2018-05-03T03:18:38.639Z,97126.48
2018-05-03T03:19:16.095Z,97121.44
2018-05-03T03:19:53.407Z,97129.11
2018-05-03T03:20:30.831Z,97127.87
2018-05-03T03:21:08.179Z,97124.05
2018-05-03T03:21:45.531Z,97123.62
2018-05-03T03:22:22.979Z,97127.02
2018-05-03T03:23:00.251Z,97131.73
2018-05-03T03:23:37.678Z,97128.73
2018-05-03T03:24:15.067Z,97129.99
2018-05-03T03:24:46.790Z,97130.81
2018-05-03T03:25:18.520Z,97127.30
2018-05-03T03:25:55.943Z,97125.09
2018-05-03T03:26:27.695Z,97130.98
2018-05-03T03:27:05.162Z,97130.52
2018-05-03T03:27:42.538Z,97134.80
2018-05-03T03:28:20.031Z,97124.97
2018-05-03T03:28:57.465Z,97130.09
2018-05-03T03:29:34.986Z,97120.20
2018-05-03T03:30:06.688Z,97121.46
2018-05-03T03:30:44.203Z,97117.63
2018-05-03T03:31:21.830Z,97115.38
2018-05-03T03:31:59.223Z,97111.47
2018-05-03T03:32:30.975Z,97106.42
2018-05-03T03:33:02.619Z,97103.45
2018-05-03T03:33:34.264Z,97101.33
2018-05-03T03:34:11.618Z,97098.85
2018-05-03T03:34:43.394Z,97102.22
2018-05-03T03:35:15.120Z,97094.52
2018-05-03T03:35:46.840Z,97098.78
2018-05-03T03:36:18.563Z,97089.06
2018-05-03T03:36:50.206Z,97096.34
2018-05-03T03:37:21.852Z,97098.88
2018-05-03T03:37:53.495Z,97096.83
2018-05-03T03:38:30.950Z,97100.61
2018-05-03T03:39:02.591Z,97097.69
2018-05-03T03:39:34.197Z,97100.98
2018-05-03T03:40:11.744Z,97106.14
2018-05-03T03:40:43.349Z,97106.14
2018-05-03T03:41:14.952Z,97109.56
2018-05-03T03:41:46.558Z,97114.30
2018-05-03T03:42:18.206Z,97111.38
2018-05-03T03:42:49.809Z,97114.77
2018-05-03T03:43:21.456Z,97114.38
2018-05-03T03:43:53.060Z,97117.81
2018-05-03T03:44:24.665Z,97120.81
2018-05-03T03:44:56.268Z,97116.98
2018-05-03T03:45:27.869Z,97122.52
2018-05-03T03:45:59.475Z,97122.09
2018-05-03T03:46:31.077Z,97128.90
2018-05-03T03:47:02.677Z,97129.70
2018-05-03T03:47:34.281Z,97128.83
2018-05-03T03:48:05.885Z,97134.78
2018-05-03T03:48:37.529Z,97139.89
2018-05-03T03:49:09.136Z,97136.05
2018-05-03T03:49:40.745Z,97137.27
2018-05-03T03:50:12.341Z,97141.94
2018-05-03T03:50:43.948Z,97142.45
2018-05-03T03:51:15.562Z,97142.42
2018-05-03T03:51:47.164Z,97138.61
2018-05-03T03:52:18.764Z,97137.73
2018-05-03T03:52:50.342Z,97141.69
2018-05-03T03:53:22.069Z,97139.98
2018-05-03T03:53:53.576Z,97133.59
2018-05-03T03:54:25.153Z,97132.73
2018-05-03T03:54:56.738Z,97138.70
2018-05-03T03:55:28.305Z,97141.27
2018-05-03T03:55:59.890Z,97136.94
2018-05-03T03:56:31.472Z,97151.86
2018-05-03T03:57:03.044Z,97147.14
2018-05-03T03:57:34.626Z,97157.34
2018-05-03T03:58:06.207Z,97154.83
2018-05-03T03:58:37.818Z,97159.11
2018-05-03T03:59:09.482Z,97158.64
2018-05-03T03:59:40.992Z,97162.50
2018-05-03T04:00:12.570Z,97157.80
2018-05-03T04:00:44.154Z,97159.06
2018-05-03T04:01:15.724Z,97151.80
2018-05-03T04:01:47.311Z,97149.63
2018-05-03T04:02:18.880Z,97150.87
2018-05-03T04:02:50.466Z,97152.14
2018-05-03T04:03:22.096Z,97150.44
2018-05-03T04:03:53.673Z,97152.16
2018-05-03T04:04:25.274Z,97158.09
2018-05-03T04:04:56.856Z,97153.84
2018-05-03T04:05:28.438Z,97158.11
2018-05-03T04:06:00.017Z,97153.07
2018-05-03T04:06:31.594Z,97158.23
2018-05-03T04:07:03.170Z,97155.25
2018-05-03T04:07:34.749Z,97153.51
2018-05-03T04:08:06.316Z,97157.39
2018-05-03T04:08:37.953Z,97156.55
2018-05-03T04:09:09.539Z,97158.72
2018-05-03T04:09:41.127Z,97151.44
2018-05-03T04:10:12.702Z,97158.73
2018-05-03T04:10:44.292Z,97161.73
2018-05-03T04:11:15.869Z,97159.59
2018-05-03T04:11:47.448Z,97159.17
2018-05-03T04:12:19.030Z,97165.15
2018-05-03T04:12:50.600Z,97165.17
2018-05-03T04:13:22.187Z,97168.56
2018-05-03T04:13:53.804Z,97171.21
2018-05-03T04:14:25.373Z,97174.26
2018-05-03T04:14:56.954Z,97177.27
2018-05-03T04:15:28.534Z,97177.73
2018-05-03T04:16:00.158Z,97181.98
2018-05-03T04:16:31.728Z,97180.67
2018-05-03T04:17:03.301Z,97174.11
2018-05-03T04:17:34.964Z,97179.38
2018-05-03T04:18:06.536Z,97182.49
2018-05-03T04:18:38.122Z,97186.13
2018-05-03T04:19:09.727Z,97183.75
2018-05-03T04:19:41.334Z,97190.50
2018-05-03T04:20:12.987Z,97191.30
2018-05-03T04:20:44.574Z,97193.06
2018-05-03T04:21:16.179Z,97188.01
2018-05-03T04:21:47.766Z,97192.87
2018-05-03T04:22:19.412Z,97187.96
2018-05-03T04:22:50.987Z,97190.67
2018-05-03T04:23:22.574Z,97184.55
2018-05-03T04:23:54.164Z,97193.50
2018-05-03T04:24:25.755Z,97190.70
2018-05-03T04:24:57.338Z,97191.22
2018-05-03T04:25:28.918Z,97186.31
2018-05-03T04:26:00.498Z,97190.03
2018-05-03T04:26:32.109Z,97193.07
2018-05-03T04:27:03.691Z,97190.52
2018-05-03T04:27:35.261Z,97187.94
2018-05-03T04:28:06.862Z,97194.34
2018-05-03T04:28:38.514Z,97192.69
2018-05-03T04:29:10.131Z,97189.22
2018-05-03T04:29:41.718Z,97187.52
2018-05-03T04:30:13.326Z,97185.38
2018-05-03T04:30:44.924Z,97187.92
2018-05-03T04:31:16.536Z,97180.29
2018-05-03T04:31:48.142Z,97179.85
2018-05-03T04:32:19.753Z,97176.07
2018-05-03T04:32:51.328Z,97177.78
2018-05-03T04:33:22.934Z,97171.33
2018-05-03T04:33:54.553Z,97173.00
2018-05-03T04:34:26.155Z,97177.25
2018-05-03T04:34:57.733Z,97175.54
2018-05-03T04:35:29.324Z,97175.05
2018-05-03T04:36:00.930Z,97177.16
2018-05-03T04:36:32.537Z,97178.84
2018-05-03T04:37:04.131Z,97178.42
2018-05-03T04:37:35.710Z,97176.65
2018-05-03T04:38:07.314Z,97169.41
2018-05-03T04:38:38.961Z,97172.28
2018-05-03T04:39:10.566Z,97168.47
2018-05-03T04:39:42.148Z,97169.20
2018-05-03T04:40:13.754Z,97165.36
2018-05-03T04:40:45.329Z,97164.08
2018-05-03T04:41:16.938Z,97164.80
2018-05-03T04:41:48.520Z,97165.05
2018-05-03T04:42:20.112Z,97168.81
2018-05-03T04:42:51.698Z,97164.53
2018-05-03T04:43:23.287Z,97164.53
2018-05-03T04:43:54.942Z,97162.74
2018-05-03T04:44:26.516Z,97161.02
2018-05-03T04:44:58.117Z,97162.70
2018-05-03T04:45:29.725Z,97161.37
2018-05-03T04:46:01.334Z,97163.12
2018-05-03T04:46:32.932Z,97159.74
2018-05-03T04:47:04.514Z,97156.73
2018-05-03T04:47:36.102Z,97159.30
2018-05-03T04:48:07.690Z,97164.77
2018-05-03T04:48:39.284Z,97161.75
2018-05-03T04:49:10.890Z,97166.86
2018-05-03T04:49:46.092Z,97174.53
2018-05-03T04:50:17.745Z,97177.97
2018-05-03T04:50:49.455Z,97174.64
2018-05-03T04:51:21.056Z,97183.10
2018-05-03T04:51:52.637Z,97181.05
2018-05-03T04:52:24.230Z,97185.71
2018-05-03T04:52:55.804Z,97183.57
2018-05-03T04:53:27.379Z,97178.80
2018-05-03T04:53:59.006Z,97180.48
2018-05-03T04:54:30.629Z,97176.66
2018-05-03T04:55:02.207Z,97179.59
2018-05-03T04:55:33.790Z,97172.85
2018-05-03T04:56:05.369Z,97178.39
2018-05-03T04:56:36.955Z,97176.66
2018-05-03T04:57:08.538Z,97178.78
2018-05-03T04:57:40.112Z,97191.47
2018-05-03T04:58:11.680Z,97196.09
2018-05-03T04:58:43.252Z,97213.21
2018-05-03T04:59:14.867Z,97216.67
2018-05-03T04:59:46.449Z,97223.90
2018-05-03T05:00:18.074Z,97226.03
2018-05-03T05:00:49.659Z,97228.13
2018-05-03T05:01:21.242Z,97232.43
2018-05-03T05:01:52.812Z,97231.16
2018-05-03T05:02:24.389Z,97231.20
2018-05-03T05:02:55.973Z,97231.13
2018-05-03T05:03:27.554Z,97229.44
2018-05-03T05:03:59.124Z,97235.84
2018-05-03T05:04:30.702Z,97228.65
2018-05-03T05:05:02.330Z,97232.02
2018-05-03T05:05:33.909Z,97229.92
2018-05-03T05:06:05.497Z,97226.89
2018-05-03T05:06:37.086Z,97228.67
2018-05-03T05:07:08.666Z,97226.55
2018-05-03T05:07:40.254Z,97223.58
2018-05-03T05:08:11.838Z,97222.30
2018-05-03T05:08:43.419Z,97223.99
2018-05-03T05:09:15.002Z,97220.23
2018-05-03T05:09:46.582Z,97218.05
2018-05-03T05:10:18.207Z,97216.42
2018-05-03T05:10:49.837Z,97213.52
2018-05-03T05:11:21.723Z,97218.16
2018-05-03T05:11:53.302Z,97211.74
2018-05-03T05:12:24.877Z,97214.38
2018-05-03T05:12:56.462Z,97210.12
2018-05-03T05:13:28.032Z,97212.63
2018-05-03T05:13:59.610Z,97213.86
2018-05-03T05:14:31.189Z,97212.59
2018-05-03T05:15:02.774Z,97208.33
2018-05-03T05:15:34.354Z,97210.42
2018-05-03T05:16:05.924Z,97209.20
2018-05-03T05:16:37.506Z,97217.81
2018-05-03T05:17:09.086Z,97219.50
2018-05-03T05:17:40.670Z,97218.63
2018-05-03T05:18:12.249Z,97221.97
2018-05-03T05:20:15.162Z,97226.36
2018-05-03T05:20:52.558Z,97225.50
2018-05-03T05:21:24.219Z,97230.25
2018-05-03T05:21:55.947Z,97224.79
2018-05-03T05:22:27.671Z,97230.41
2018-05-03T05:22:59.391Z,97235.04
2018-05-03T05:23:31.083Z,97246.55
2018-05-03T05:24:02.735Z,97246.98
2018-05-03T05:24:34.458Z,97248.64
2018-05-03T05:25:06.183Z,97255.89
2018-05-03T05:25:37.902Z,97256.79
2018-05-03T05:26:09.627Z,97258.13
2018-05-03T05:26:41.353Z,97259.40
2018-05-03T05:27:13.075Z,97268.36
2018-05-03T05:27:44.799Z,97261.52
2018-05-03T05:28:16.523Z,97262.38
2018-05-03T05:28:48.247Z,97268.78
2018-05-03T05:29:19.971Z,97264.07
2018-05-03T05:29:51.696Z,97258.98
2018-05-03T05:30:23.414Z,97256.86
2018-05-03T05:30:55.060Z,97259.86
2018-05-03T05:31:26.763Z,97250.88
2018-05-03T05:31:58.482Z,97260.62
2018-05-03T05:32:30.203Z,97256.84
2018-05-03T05:33:01.928Z,97255.16
2018-05-03T05:33:33.655Z,97260.72
2018-05-03T05:34:05.375Z,97262.81
2018-05-03T05:34:37.102Z,97262.83
2018-05-03T05:35:08.822Z,97264.55
2018-05-03T05:35:40.542Z,97267.97
2018-05-03T05:36:12.267Z,97269.22
2018-05-03T05:36:44.039Z,97272.18
2018-05-03T05:37:15.714Z,97276.38
2018-05-03T05:37:47.486Z,97273.80
2018-05-03T05:38:19.267Z,97281.90
2018-05-03T05:38:50.957Z,97277.24
2018-05-03T05:39:22.596Z,97277.33
2018-05-03T05:39:54.480Z,97281.97
2018-05-03T05:40:26.155Z,97287.95
2018-05-03T05:40:57.878Z,97286.24
2018-05-03T05:41:30.303Z,97256.64
2018-05-03T05:42:02.038Z,97285.86
2018-05-03T05:42:33.682Z,97287.61
2018-05-03T05:43:05.386Z,97294.02
2018-05-03T05:43:37.031Z,97293.60
2018-05-03T05:44:08.731Z,97294.46
2018-05-03T05:44:40.450Z,97291.05
2018-05-03T05:45:12.174Z,97286.75
2018-05-03T05:45:43.898Z,97291.80
2018-05-03T05:46:15.623Z,97290.50
2018-05-03T05:46:47.267Z,97294.22
2018-05-03T05:47:18.970Z,97293.33
2018-05-03T05:47:50.693Z,97295.50
2018-05-03T05:48:22.415Z,97287.45
2018-05-03T05:48:54.052Z,97287.89
2018-05-03T05:49:25.745Z,97287.83
2018-05-03T05:49:57.372Z,97285.58
2018-05-03T05:50:28.996Z,97290.22
2018-05-03T05:51:00.647Z,97290.17
2018-05-03T05:51:32.289Z,97286.75
2018-05-03T05:52:03.916Z,97289.71
2018-05-03T05:52:35.544Z,97291.73
2018-05-03T05:53:07.172Z,97285.88
2018-05-03T05:53:38.796Z,97287.08
2018-05-03T05:54:10.420Z,97288.73
2018-05-03T05:54:42.092Z,97296.85
2018-05-03T05:55:13.721Z,97298.13
2018-05-03T05:55:45.353Z,97301.13
2018-05-03T05:56:16.979Z,97297.73
2018-05-03T05:56:48.657Z,97305.38
2018-05-03T05:57:20.225Z,97307.52
2018-05-03T05:57:51.824Z,97307.59
2018-05-03T05:58:23.430Z,97304.98
2018-05-03T05:58:55.029Z,97309.23
2018-05-03T05:59:26.689Z,97307.59
2018-05-03T05:59:58.286Z,97309.78
2018-05-03T06:00:29.893Z,97315.70
2018-05-03T06:01:01.546Z,97318.20
2018-05-03T06:01:34.186Z,97319.05
2018-05-03T06:02:05.794Z,97318.72
2018-05-03T06:02:37.394Z,97324.67
2018-05-03T06:03:09.001Z,97322.55
2018-05-03T06:03:40.614Z,97321.34
2018-05-03T06:04:12.264Z,97323.04
2018-05-03T06:04:44.466Z,97326.02
2018-05-03T06:05:16.074Z,97321.84
2018-05-03T06:05:47.687Z,97320.94
2018-05-03T06:06:19.296Z,97323.84
2018-05-03T06:06:50.892Z,97331.59
2018-05-03T06:07:22.491Z,97320.10
2018-05-03T06:07:54.088Z,97321.00
2018-05-03T06:08:25.699Z,97326.97
2018-05-03T06:08:57.325Z,97331.66
2018-05-03T06:09:28.931Z,97333.30
2018-05-03T06:10:00.590Z,97336.32
2018-05-03T06:10:32.202Z,97332.92
2018-05-03T06:11:03.812Z,97337.20
2018-05-03T06:11:35.422Z,97340.20
2018-05-03T06:12:07.030Z,97331.66
2018-05-03T06:12:38.624Z,97337.28
2018-05-03T06:13:10.214Z,97342.40
2018-05-03T06:13:41.784Z,97343.19
2018-05-03T06:14:13.393Z,97344.94
2018-05-03T06:14:45.021Z,97342.80
2018-05-03T06:15:16.602Z,97344.53
2018-05-03T06:15:48.227Z,97347.52
2018-05-03T06:16:19.830Z,97342.00
2018-05-03T06:16:51.473Z,97343.33
2018-05-03T06:17:23.073Z,97351.39
2018-05-03T06:17:54.652Z,97345.83
2018-05-03T06:18:26.253Z,97348.45